Avonmore, PA

4:44 PM EDT on October 31, 2014 (GMT -0400)
Wellington Estates | Change Station
CLOSE
Current Station
Personal Weather Station
Location: Export, PA
Elevation: 1286 ft
Nearby Weather Stations

Elev 1286 ft 40.45 °N, 79.59 °W | Updated 5 seconds ago

Rain
Rain
44.2 °F
Feels Like 44 °F
N
1.6
Wind Variable Wind from NNE
Gusts 3.1 mph

Today
High -- | Low -- °F
--% Chance of Precip.
Yesterday
High -- | Low -- °F
Precip. -- in
7:46 AM 6:15 PM
First Quarter, 58% visible
Pressure 29.86 in
Visibility 6.0 miles
Clouds Mostly Cloudy 3000 ft
Overcast 4600 ft
Windchill 44 °F
Dew Point 40 °F
Humidity 84%
Rainfall 0.05 in
Snow Depth Not available.
UV 1 out of 12
Pollen .10 out of 12
Air Quality Not available.
Flu Activity Not available.
METAR KLBE 311950Z 00000KT 6SM -DZ BR BKN030 OVC046 09/03 A2986

More Conditions Fewer Conditions

Pressure 29.86 in
Visibility 6.0 miles
Clouds Mostly Cloudy 3000 ft
Overcast 4600 ft
Windchill 44 °F
Dew Point 40 °F
Humidity 84%
Rainfall 0.05 in
Snow Depth Not available.
UV 1 out of 12
Pollen .10 out of 12
Air Quality Not available.
Flu Activity Not available.
METAR KLBE 311950Z 00000KT 6SM -DZ BR BKN030 OVC046 09/03 A2986

More Conditions Fewer Conditions

10-Day Weather Forecast

Almanac

Astronomy

Oct. 31, 2014 Rise Set
Actual Time
Civil Twilight
Nautical Twilight
Astronomical Twilight
Moon
Length of Visible Light
Length of Day
Tomorrow will be .
, % of the Moon is Illuminated

Today's Extremes

State Highs State Lows

Community

WunderPhotos

Upload Photos

1,766,734 photos uploaded!

WunderBlogs® & News

Nearby

Air Quality

  Air Quality AQ Index Pollutant
Not available.

Snow Depth

Station Depth Elevation

Earthquake Activity

City Distance Mag. Time & Date
Minimum magnitude displayed is 2.5.

Coastal Water Temperatures

Place Temperature

Nearby Weather Stations